createdAt,value
2018-07-05T00:06:12.243Z,66.17
2018-07-05T00:21:27.206Z,63.56
2018-07-05T00:36:41.865Z,63.19
2018-07-05T00:51:56.713Z,61.87
2018-07-05T01:07:11.580Z,60.83
2018-07-05T01:22:26.300Z,60.44
2018-07-05T01:37:41.100Z,59.66
2018-07-05T01:52:55.739Z,59.51
2018-07-05T02:08:10.572Z,58.61
2018-07-05T02:23:25.321Z,58.09
2018-07-05T02:38:40.331Z,58.45
2018-07-05T02:53:55.084Z,58.94
2018-07-05T03:09:09.812Z,61.59
2018-07-05T03:24:25.708Z,66.52
2018-07-05T03:39:40.619Z,68.19
2018-07-05T03:54:55.427Z,69.53
2018-07-05T04:10:10.124Z,67.34
2018-07-05T04:25:25.023Z,63.90
2018-07-05T04:40:39.713Z,60.63
2018-07-05T04:55:54.499Z,52.96
2018-07-05T05:11:09.331Z,47.24
2018-07-05T05:26:24.166Z,43.59
2018-07-05T05:41:38.923Z,40.54
2018-07-05T05:56:53.712Z,40.27
2018-07-05T06:12:08.454Z,42.57
2018-07-05T06:27:23.307Z,43.63
2018-07-05T06:42:38.029Z,44.89
2018-07-05T06:57:52.803Z,45.09
2018-07-05T07:13:08.747Z,42.27
2018-07-05T07:28:25.343Z,35.29
2018-07-05T07:43:27.757Z,31.68
2018-07-05T07:58:30.156Z,31.57
2018-07-05T08:13:32.551Z,30.53
2018-07-05T08:28:34.911Z,30.66
2018-07-05T08:43:37.313Z,30.78
2018-07-05T08:58:39.676Z,30.14
2018-07-05T09:13:42.052Z,29.44
2018-07-05T09:28:44.425Z,27.56
2018-07-05T09:43:46.864Z,26.69
2018-07-05T09:58:49.256Z,28.03
2018-07-05T10:13:53.198Z,27.02
2018-07-05T10:29:07.865Z,27.08
2018-07-05T10:44:22.640Z,26.49
2018-07-05T10:59:37.642Z,26.95
2018-07-05T11:14:52.366Z,26.85
2018-07-05T11:30:07.108Z,27.60
2018-07-05T11:45:21.971Z,27.37
2018-07-05T12:00:37.073Z,29.24
2018-07-05T12:15:52.029Z,29.21
2018-07-05T12:31:06.928Z,28.78
2018-07-05T12:46:21.646Z,30.65
2018-07-05T13:01:36.404Z,30.34
2018-07-05T13:16:51.296Z,31.36
2018-07-05T13:32:06.113Z,32.64
2018-07-05T13:47:20.812Z,32.08
2018-07-05T14:02:35.513Z,34.02
2018-07-05T14:17:50.291Z,34.66
2018-07-05T14:33:05.120Z,34.68
2018-07-05T14:48:19.903Z,34.44
2018-07-05T15:03:34.590Z,36.05
2018-07-05T15:18:49.324Z,35.52
2018-07-05T15:34:04.169Z,35.41
2018-07-05T15:49:18.828Z,35.26
2018-07-05T16:04:33.704Z,37.63
2018-07-05T16:19:48.465Z,36.93
2018-07-05T16:35:03.316Z,37.50
2018-07-05T16:50:18.263Z,38.16
2018-07-05T17:05:32.915Z,39.24
2018-07-05T17:20:47.648Z,50.18
2018-07-05T17:36:02.604Z,49.39
2018-07-05T17:51:17.445Z,49.73
2018-07-05T18:06:32.294Z,49.79
2018-07-05T18:21:47.373Z,50.56
2018-07-05T18:37:02.434Z,49.68
2018-07-05T18:52:17.341Z,50.56
2018-07-05T19:07:32.464Z,50.73
2018-07-05T19:22:47.347Z,50.88
2018-07-05T19:38:02.055Z,49.94
2018-07-05T19:53:16.848Z,50.15
2018-07-05T20:08:31.813Z,50.84
2018-07-05T20:23:46.719Z,50.45
2018-07-05T20:39:01.588Z,50.29
2018-07-05T20:54:16.412Z,51.73
2018-07-05T21:09:31.232Z,51.87
2018-07-05T21:24:45.952Z,51.82
2018-07-05T21:40:00.660Z,52.07
2018-07-05T21:55:15.385Z,53.20
2018-07-05T22:10:30.256Z,52.58
2018-07-05T22:25:50.459Z,52.67
2018-07-05T22:41:05.387Z,52.46
2018-07-05T22:56:20.088Z,52.20
2018-07-05T23:11:34.768Z,52.28
2018-07-05T23:26:49.524Z,52.93
2018-07-05T23:42:04.320Z,52.93
2018-07-05T23:57:19.128Z,53.43
